createdAt,value
2023-02-21T00:00:45.475Z,97629.95
2023-02-21T00:03:26.112Z,97633.41
2023-02-21T00:06:06.961Z,97635.44
2023-02-21T00:08:47.650Z,97638.52
2023-02-21T00:11:29.299Z,97632.42
2023-02-21T00:14:10.022Z,97632.45
2023-02-21T00:16:50.796Z,97637.11
2023-02-21T00:19:31.439Z,97629.27
2023-02-21T00:22:13.754Z,97635.45
2023-02-21T00:24:54.342Z,97639.98
2023-02-21T00:27:35.952Z,97632.39
2023-02-21T00:30:16.663Z,97636.27
2023-02-21T00:32:57.467Z,97626.02
2023-02-21T00:35:38.277Z,97629.07
2023-02-21T00:38:19.405Z,97618.96
2023-02-21T00:41:00.126Z,97618.22
2023-02-21T00:43:45.366Z,97614.39
2023-02-21T00:46:26.028Z,97617.41
2023-02-21T00:49:06.701Z,97618.42
2023-02-21T00:51:47.326Z,97619.76
2023-02-21T00:54:29.034Z,97618.28
2023-02-21T00:57:09.734Z,97616.77
2023-02-21T00:59:49.470Z,97614.33
2023-02-21T01:02:30.240Z,97622.37
2023-02-21T01:05:10.901Z,97616.52
2023-02-21T01:07:51.754Z,97610.06
2023-02-21T01:10:32.897Z,97606.06
2023-02-21T01:13:13.483Z,97603.33
2023-02-21T01:15:55.170Z,97607.95
2023-02-21T01:18:35.876Z,97613.79
2023-02-21T01:21:16.772Z,97611.95
2023-02-21T01:23:57.542Z,97614.82
2023-02-21T01:26:38.302Z,97609.55
2023-02-21T01:29:19.146Z,97608.66
2023-02-21T01:31:59.769Z,97614.81
2023-02-21T01:34:39.404Z,97607.59
2023-02-21T01:37:21.316Z,97603.27
2023-02-21T01:40:01.946Z,97602.02
2023-02-21T01:42:42.617Z,97600.70
2023-02-21T01:45:37.096Z,97600.48
2023-02-21T01:48:18.341Z,97599.44
2023-02-21T01:50:59.066Z,97598.89
2023-02-21T01:53:40.347Z,97591.79
2023-02-21T01:56:21.604Z,97583.52
2023-02-21T01:59:05.737Z,97582.23
2023-02-21T02:02:13.354Z,97576.08
2023-02-21T02:04:56.345Z,97572.70
2023-02-21T02:07:37.045Z,97566.84
2023-02-21T02:10:19.714Z,97570.59
2023-02-21T02:13:14.318Z,97574.59
2023-02-21T02:15:55.645Z,97574.71
2023-02-21T02:18:36.399Z,97574.47
2023-02-21T02:21:25.740Z,97576.95
2023-02-21T02:23:52.375Z,97572.89
2023-02-21T02:26:34.996Z,97569.45
2023-02-21T02:29:29.253Z,97565.42
2023-02-21T02:32:28.376Z,97568.45
2023-02-21T02:35:11.814Z,97571.00
2023-02-21T02:37:44.454Z,97569.10
2023-02-21T02:40:43.175Z,97563.97
2023-02-21T02:43:13.364Z,97563.15
2023-02-21T02:45:48.878Z,97564.86
2023-02-21T02:48:22.199Z,97559.91
2023-02-21T02:50:51.208Z,97566.52
2023-02-21T02:53:25.505Z,97564.16
2023-02-21T02:55:58.500Z,97565.19
2023-02-21T02:58:32.827Z,97572.94
2023-02-21T03:01:14.755Z,97575.42
2023-02-21T03:04:11.190Z,97573.08
2023-02-21T03:06:58.173Z,97573.54
2023-02-21T03:09:45.578Z,97573.83
2023-02-21T03:12:46.514Z,97575.39
2023-02-21T03:15:21.262Z,97572.59
2023-02-21T03:18:14.009Z,97575.60
2023-02-21T03:20:42.716Z,97574.20
2023-02-21T03:23:13.301Z,97571.63
2023-02-21T03:25:41.195Z,97572.98
2023-02-21T03:28:08.813Z,97578.38
2023-02-21T03:30:36.118Z,97579.30
2023-02-21T03:33:03.008Z,97580.55
2023-02-21T03:35:30.589Z,97579.59
2023-02-21T03:37:58.652Z,97584.45
2023-02-21T03:40:30.973Z,97585.23
2023-02-21T03:42:59.735Z,97578.71
2023-02-21T03:45:26.439Z,97583.81
2023-02-21T03:47:53.309Z,97586.60
2023-02-21T03:50:19.968Z,97590.58
2023-02-21T03:52:46.650Z,97585.79
2023-02-21T03:55:13.770Z,97584.69
2023-02-21T03:57:40.673Z,97590.98
2023-02-21T04:00:08.103Z,97593.88
2023-02-21T04:02:34.786Z,97597.30
2023-02-21T04:05:01.586Z,97598.36
2023-02-21T04:07:28.437Z,97597.33
2023-02-21T04:09:55.464Z,97596.20
2023-02-21T04:12:22.240Z,97595.04
2023-02-21T04:14:49.055Z,97589.83
2023-02-21T04:17:17.094Z,97596.39
2023-02-21T04:19:43.839Z,97589.50
2023-02-21T04:22:10.552Z,97588.27
2023-02-21T04:24:37.274Z,97591.93
2023-02-21T04:27:04.018Z,97595.22
2023-02-21T04:29:30.835Z,97592.41
2023-02-21T04:31:57.953Z,97590.95
2023-02-21T04:34:25.126Z,97593.32
2023-02-21T04:36:51.838Z,97587.89
2023-02-21T04:39:18.567Z,97589.20
2023-02-21T04:41:45.259Z,97588.52
2023-02-21T04:44:13.295Z,97593.05
2023-02-21T04:46:40.040Z,97593.52
2023-02-21T04:49:06.769Z,97590.86
2023-02-21T04:51:33.556Z,97596.77
2023-02-21T04:54:00.334Z,97596.55
2023-02-21T04:56:28.226Z,97592.95
2023-02-21T04:58:55.827Z,97595.25
2023-02-21T05:01:23.303Z,97599.52
2023-02-21T05:03:50.153Z,97606.98
2023-02-21T05:06:21.784Z,97609.43
2023-02-21T05:08:48.959Z,97609.85
2023-02-21T05:11:16.399Z,97612.75
2023-02-21T05:13:43.904Z,97609.80
2023-02-21T05:16:11.582Z,97607.84
2023-02-21T05:18:41.338Z,97613.77
2023-02-21T05:21:08.202Z,97606.94
2023-02-21T05:23:36.993Z,97602.70
2023-02-21T05:26:05.247Z,97602.13
2023-02-21T05:28:32.483Z,97599.96
2023-02-21T05:31:01.152Z,97596.14
2023-02-21T05:33:28.807Z,97586.56
2023-02-21T05:35:55.970Z,97586.85
2023-02-21T05:38:24.723Z,97589.55
2023-02-21T05:40:52.113Z,97583.54
2023-02-21T05:43:18.961Z,97579.02
2023-02-21T05:45:46.403Z,97577.46
2023-02-21T05:48:13.219Z,97580.27
2023-02-21T05:50:40.012Z,97578.85
2023-02-21T05:53:07.377Z,97580.58
2023-02-21T05:55:34.094Z,97584.88
2023-02-21T05:58:00.895Z,97583.23
2023-02-21T06:00:30.187Z,97583.77
2023-02-21T06:02:57.283Z,97586.89
2023-02-21T06:05:24.267Z,97586.14
2023-02-21T06:07:51.421Z,97600.42
2023-02-21T06:10:19.589Z,97599.85
2023-02-21T06:12:46.866Z,97599.16
2023-02-21T06:15:13.749Z,97595.91
2023-02-21T06:17:41.602Z,97598.23
2023-02-21T06:20:12.737Z,97595.08
2023-02-21T06:22:39.487Z,97593.63
2023-02-21T06:25:06.788Z,97599.43
2023-02-21T06:27:33.459Z,97598.08
2023-02-21T06:30:00.284Z,97596.25
2023-02-21T06:32:27.863Z,97600.35
2023-02-21T06:34:54.643Z,97600.69
2023-02-21T06:37:21.952Z,97608.65
2023-02-21T06:39:48.701Z,97609.77
2023-02-21T06:42:16.779Z,97612.06
2023-02-21T06:44:45.154Z,97614.18
2023-02-21T06:47:11.922Z,97615.71
2023-02-21T06:49:38.594Z,97619.95
2023-02-21T06:52:06.436Z,97619.99
2023-02-21T06:54:33.158Z,97630.02
2023-02-21T06:57:01.822Z,97631.27
2023-02-21T06:59:29.619Z,97637.02
2023-02-21T07:01:57.286Z,97636.46
2023-02-21T07:04:24.825Z,97636.33
2023-02-21T07:06:52.404Z,97645.34
2023-02-21T07:09:19.184Z,97634.02
2023-02-21T07:11:47.255Z,97642.58
2023-02-21T07:14:14.515Z,97641.20
2023-02-21T07:16:41.995Z,97645.88
2023-02-21T07:19:08.824Z,97650.59
2023-02-21T07:21:35.566Z,97648.65
2023-02-21T07:24:02.344Z,97649.63
2023-02-21T07:26:29.016Z,97651.80
2023-02-21T07:28:55.798Z,97653.71
2023-02-21T07:31:23.197Z,97653.10
2023-02-21T07:33:50.054Z,97655.23
2023-02-21T07:36:17.254Z,97663.15
2023-02-21T07:38:44.253Z,97660.20
2023-02-21T07:41:11.305Z,97662.11
2023-02-21T07:43:39.329Z,97660.02
2023-02-21T07:46:14.307Z,97660.09
2023-02-21T07:48:41.050Z,97662.98
2023-02-21T07:51:08.777Z,97660.55
2023-02-21T07:53:35.629Z,97654.04
2023-02-21T07:56:04.535Z,97646.46
2023-02-21T07:58:32.706Z,97645.45
2023-02-21T08:00:59.690Z,97646.30
2023-02-21T08:03:26.583Z,97642.04
2023-02-21T08:05:53.837Z,97641.66
2023-02-21T08:08:20.494Z,97640.70
2023-02-21T08:10:47.272Z,97641.27
2023-02-21T08:13:14.176Z,97646.29
2023-02-21T08:15:40.976Z,97647.06
2023-02-21T08:18:18.948Z,97653.13
2023-02-21T08:20:45.709Z,97669.29
2023-02-21T08:23:12.551Z,97667.22
2023-02-21T08:25:39.888Z,97667.10
2023-02-21T08:28:06.590Z,97674.41
2023-02-21T08:30:33.551Z,97668.61
2023-02-21T08:33:00.296Z,97675.14
2023-02-21T08:35:27.204Z,97678.74
2023-02-21T08:37:57.044Z,97677.30
2023-02-21T08:40:24.500Z,97680.16
2023-02-21T08:42:53.836Z,97694.85
2023-02-21T08:45:22.804Z,97691.70
2023-02-21T08:47:51.657Z,97690.92
2023-02-21T08:50:20.079Z,97697.80
2023-02-21T08:52:48.477Z,97694.73
2023-02-21T08:55:16.033Z,97691.58
2023-02-21T08:57:43.166Z,97686.30
2023-02-21T09:00:13.892Z,97700.83
2023-02-21T09:02:40.831Z,97696.81
2023-02-21T09:05:10.619Z,97695.80
2023-02-21T09:07:38.246Z,97697.79
2023-02-21T09:10:06.666Z,97698.70
2023-02-21T09:12:38.161Z,97700.05
2023-02-21T09:15:06.967Z,97707.56
2023-02-21T09:17:34.413Z,97711.62
2023-02-21T09:22:55.819Z,97718.09
2023-02-21T09:25:25.072Z,97722.45
2023-02-21T09:27:54.614Z,97725.02
2023-02-21T09:30:26.438Z,97725.00
2023-02-21T09:32:55.071Z,97726.17
2023-02-21T09:35:23.106Z,97728.91
2023-02-21T09:37:49.809Z,97735.40
2023-02-21T09:40:29.816Z,97735.60
2023-02-21T09:43:00.548Z,97742.98
2023-02-21T09:45:38.075Z,97747.27
2023-02-21T09:48:11.436Z,97750.27
2023-02-21T09:51:08.903Z,97742.45
2023-02-21T09:53:40.686Z,97745.85
2023-02-21T09:56:30.005Z,97748.20
2023-02-21T09:58:59.162Z,97758.00
2023-02-21T10:01:47.974Z,97755.41
2023-02-21T10:04:18.001Z,97749.68
2023-02-21T10:06:57.997Z,97741.13
2023-02-21T10:09:41.970Z,97739.27
2023-02-21T10:12:24.840Z,97740.53
2023-02-21T10:15:16.450Z,97756.78
2023-02-21T10:17:57.990Z,97755.35
2023-02-21T10:20:35.948Z,97759.63
2023-02-21T10:23:06.351Z,97757.00
2023-02-21T10:25:37.044Z,97757.78
2023-02-21T10:28:04.193Z,97760.98
2023-02-21T10:30:40.451Z,97761.33
2023-02-21T10:33:08.695Z,97766.36
2023-02-21T10:35:39.600Z,97766.31
2023-02-21T10:38:17.643Z,97762.27
2023-02-21T10:40:45.832Z,97751.20
2023-02-21T10:43:32.756Z,97746.92
2023-02-21T10:46:10.666Z,97740.90
2023-02-21T10:48:41.713Z,97756.95
2023-02-21T10:51:28.450Z,97758.63
2023-02-21T10:54:23.150Z,97754.55
2023-02-21T10:59:37.317Z,97755.53
2023-02-21T11:02:33.191Z,97762.64
2023-02-21T11:05:29.932Z,97761.17
2023-02-21T11:08:03.397Z,97758.77
2023-02-21T11:10:34.707Z,97763.90
2023-02-21T11:13:04.679Z,97761.66
2023-02-21T11:15:32.096Z,97760.27
2023-02-21T11:18:12.473Z,97756.50
2023-02-21T11:20:39.473Z,97761.17
2023-02-21T11:23:19.840Z,97758.95
2023-02-21T11:25:47.389Z,97756.28
2023-02-21T11:28:14.053Z,97756.37
2023-02-21T11:30:52.767Z,97758.52
2023-02-21T11:33:24.035Z,97754.80
2023-02-21T11:35:52.891Z,97750.05
2023-02-21T11:38:35.973Z,97749.34
2023-02-21T11:41:16.262Z,97755.39
2023-02-21T11:43:52.191Z,97762.35
2023-02-21T11:46:35.784Z,97769.00
2023-02-21T11:49:19.374Z,97775.05
2023-02-21T11:51:52.153Z,97780.40
2023-02-21T11:54:27.875Z,97785.59
2023-02-21T11:57:17.421Z,97784.55
2023-02-21T11:59:56.909Z,97786.67
2023-02-21T12:02:37.820Z,97783.92
2023-02-21T12:05:14.839Z,97781.95
2023-02-21T12:07:58.132Z,97777.84
2023-02-21T12:10:47.425Z,97783.07
2023-02-21T12:13:31.028Z,97779.79
2023-02-21T12:16:22.349Z,97776.48
2023-02-21T12:19:11.911Z,97782.48
2023-02-21T12:21:38.868Z,97795.98
2023-02-21T12:24:17.371Z,97799.34
2023-02-21T12:26:55.477Z,97798.99
2023-02-21T12:29:28.307Z,97807.64
2023-02-21T12:32:09.171Z,97802.92
2023-02-21T12:35:13.761Z,97806.55
2023-02-21T12:37:55.732Z,97808.64
2023-02-21T12:40:59.358Z,97818.38
2023-02-21T12:43:44.377Z,97821.34
2023-02-21T12:46:31.593Z,97808.66
2023-02-21T12:49:27.507Z,97810.50
2023-02-21T12:52:15.371Z,97812.48
2023-02-21T12:55:07.077Z,97799.95
2023-02-21T12:58:01.624Z,97805.52
2023-02-21T13:00:54.892Z,97798.34
2023-02-21T13:03:39.602Z,97796.55
2023-02-21T13:06:15.216Z,97795.11
2023-02-21T13:08:59.321Z,97792.98
2023-02-21T13:11:33.213Z,97792.44
2023-02-21T13:14:00.850Z,97789.71
2023-02-21T13:16:28.218Z,97787.38
2023-02-21T13:19:05.895Z,97784.73
2023-02-21T13:21:45.654Z,97783.92
2023-02-21T13:24:41.664Z,97776.67
2023-02-21T13:27:31.657Z,97788.25
2023-02-21T13:30:23.725Z,97789.30
2023-02-21T13:32:59.873Z,97788.22
2023-02-21T13:35:36.674Z,97785.92
2023-02-21T13:38:07.053Z,97788.52
2023-02-21T13:40:38.672Z,97790.58
2023-02-21T13:43:24.749Z,97793.70
2023-02-21T13:45:53.316Z,97797.21
2023-02-21T13:48:24.016Z,97794.58
2023-02-21T13:50:54.212Z,97800.97
2023-02-21T13:53:34.687Z,97806.59
2023-02-21T13:56:07.817Z,97806.14
2023-02-21T13:58:37.633Z,97811.72
2023-02-21T14:01:40.197Z,97812.04
2023-02-21T14:04:34.656Z,97817.42
2023-02-21T14:07:02.908Z,97819.45
2023-02-21T14:09:37.194Z,97817.86
2023-02-21T14:12:05.945Z,97809.45
2023-02-21T14:14:39.605Z,97803.04
2023-02-21T14:17:13.108Z,97803.65
2023-02-21T14:19:44.260Z,97801.77
2023-02-21T14:22:20.524Z,97800.77
2023-02-21T14:24:50.277Z,97802.42
2023-02-21T14:27:16.862Z,97800.67
2023-02-21T14:29:45.215Z,97805.66
2023-02-21T14:32:12.145Z,97810.42
2023-02-21T14:34:48.359Z,97820.73
2023-02-21T14:37:46.765Z,97822.61
2023-02-21T14:40:43.467Z,97825.73
2023-02-21T14:43:22.384Z,97830.14
2023-02-21T14:46:14.674Z,97826.61
2023-02-21T14:48:53.139Z,97830.05
2023-02-21T14:51:47.708Z,97835.98
2023-02-21T14:54:23.381Z,97832.55
2023-02-21T15:00:12.087Z,97839.70
2023-02-21T15:02:52.825Z,97840.96
2023-02-21T15:05:40.647Z,97842.40
2023-02-21T15:08:07.559Z,97851.23
2023-02-21T15:10:42.029Z,97847.54
2023-02-21T15:13:23.634Z,97853.17
2023-02-21T15:16:01.574Z,97854.38
2023-02-21T15:18:35.052Z,97852.27
2023-02-21T15:21:07.222Z,97850.04
2023-02-21T15:23:35.231Z,97848.55
2023-02-21T15:26:18.977Z,97845.61
2023-02-21T15:28:46.738Z,97846.41
2023-02-21T15:31:14.708Z,97848.26
2023-02-21T15:33:44.278Z,97853.27
2023-02-21T15:36:22.103Z,97855.67
2023-02-21T15:39:20.349Z,97859.00
2023-02-21T15:41:50.262Z,97864.56
2023-02-21T15:44:51.203Z,97865.66
2023-02-21T15:47:22.539Z,97867.80
2023-02-21T15:50:01.833Z,97876.56
2023-02-21T15:52:46.678Z,97875.67
2023-02-21T15:55:20.400Z,97882.02
2023-02-21T15:58:00.238Z,97882.45
2023-02-21T16:00:29.461Z,97885.49
2023-02-21T16:03:24.417Z,97892.39
2023-02-21T16:05:51.744Z,97891.29
2023-02-21T16:08:18.892Z,97888.28
2023-02-21T16:10:46.126Z,97890.88
2023-02-21T16:13:14.858Z,97895.72
2023-02-21T16:15:43.499Z,97894.83
2023-02-21T16:18:18.161Z,97893.13
2023-02-21T16:20:46.048Z,97897.45
2023-02-21T16:23:30.278Z,97899.70
2023-02-21T16:26:13.625Z,97903.00
2023-02-21T16:28:41.573Z,97902.34
2023-02-21T16:31:15.056Z,97907.48
2023-02-21T16:33:42.148Z,97914.05
2023-02-21T16:36:27.548Z,97918.24
2023-02-21T16:38:56.510Z,97920.45
2023-02-21T16:41:23.996Z,97920.43
2023-02-21T16:43:51.043Z,97922.85
2023-02-21T16:46:32.039Z,97921.38
2023-02-21T16:48:59.966Z,97924.30
2023-02-21T16:51:33.939Z,97930.44
2023-02-21T16:54:01.616Z,97927.85
2023-02-21T16:56:28.536Z,97933.88
2023-02-21T16:58:57.377Z,97935.48
2023-02-21T17:01:26.577Z,97935.21
2023-02-21T17:03:54.045Z,97932.99
2023-02-21T17:06:24.352Z,97936.34
2023-02-21T17:08:51.767Z,97941.91
2023-02-21T17:11:18.870Z,97943.70
2023-02-21T17:13:45.816Z,97947.16
2023-02-21T17:16:12.706Z,97951.87
2023-02-21T17:18:39.589Z,97953.45
2023-02-21T17:21:06.419Z,97955.54
2023-02-21T17:23:33.236Z,97960.24
2023-02-21T17:26:00.116Z,97963.02
2023-02-21T17:28:26.909Z,97961.89
2023-02-21T17:30:53.897Z,97961.48
2023-02-21T17:33:20.661Z,97959.78
2023-02-21T17:35:47.451Z,97966.23
2023-02-21T17:38:14.266Z,97967.02
2023-02-21T17:40:41.164Z,97968.48
2023-02-21T17:43:09.191Z,97969.84
2023-02-21T17:45:36.588Z,97974.02
2023-02-21T17:48:05.739Z,97979.83
2023-02-21T17:50:33.105Z,97979.52
2023-02-21T17:53:00.686Z,97981.63
2023-02-21T17:55:29.834Z,97984.31
2023-02-21T17:57:57.704Z,97982.69
2023-02-21T18:00:27.541Z,97983.86
2023-02-21T18:02:55.204Z,97982.08
2023-02-21T18:05:22.950Z,97981.89
2023-02-21T18:07:52.493Z,97984.98
2023-02-21T18:10:22.180Z,97986.03
2023-02-21T18:12:51.198Z,97985.40
2023-02-21T18:15:20.857Z,97986.20
2023-02-21T18:17:47.939Z,97993.71
2023-02-21T18:20:16.083Z,97986.98
2023-02-21T18:22:43.314Z,97991.20
2023-02-21T18:25:11.221Z,97991.06
2023-02-21T18:27:38.177Z,97992.77
2023-02-21T18:30:06.280Z,97994.73
2023-02-21T18:32:33.424Z,97996.48
2023-02-21T18:35:00.848Z,98001.08
2023-02-21T18:37:27.765Z,98013.88
2023-02-21T18:39:55.726Z,98015.09
2023-02-21T18:42:24.239Z,98014.54
2023-02-21T18:44:52.556Z,98015.80
2023-02-21T18:47:20.199Z,98022.06
2023-02-21T18:49:48.928Z,98023.30
2023-02-21T18:52:16.804Z,98027.33
2023-02-21T18:54:45.815Z,98031.58
2023-02-21T18:57:13.159Z,98034.79
2023-02-21T18:59:40.296Z,98033.30
2023-02-21T19:02:08.793Z,98038.84
2023-02-21T19:04:35.564Z,98043.55
2023-02-21T19:07:07.612Z,98045.98
2023-02-21T19:09:35.681Z,98051.76
2023-02-21T19:12:03.766Z,98055.58
2023-02-21T19:14:31.036Z,98058.23
2023-02-21T19:16:57.758Z,98065.68
2023-02-21T19:19:24.475Z,98067.73
2023-02-21T19:21:51.276Z,98065.05
2023-02-21T19:24:18.429Z,98066.98
2023-02-21T19:26:45.341Z,98070.78
2023-02-21T19:29:12.696Z,98073.95
2023-02-21T19:31:39.644Z,98080.41
2023-02-21T19:34:06.842Z,98085.89
2023-02-21T19:36:39.967Z,98096.38
2023-02-21T19:39:08.636Z,98100.04
2023-02-21T19:41:40.591Z,98099.34
2023-02-21T19:44:08.485Z,98100.55
2023-02-21T19:46:35.715Z,98105.11
2023-02-21T19:49:07.120Z,98108.34
2023-02-21T19:51:34.330Z,98119.45
2023-02-21T19:54:01.477Z,98123.45
2023-02-21T19:56:28.587Z,98120.64
2023-02-21T19:58:55.622Z,98130.03
2023-02-21T20:01:23.357Z,98129.28
2023-02-21T20:03:51.064Z,98128.95
2023-02-21T20:06:18.789Z,98127.34
2023-02-21T20:08:48.908Z,98134.30
2023-02-21T20:11:17.922Z,98142.76
2023-02-21T20:13:45.485Z,98142.52
2023-02-21T20:16:15.702Z,98144.02
2023-02-21T20:18:46.466Z,98145.70
2023-02-21T20:21:29.237Z,98148.85
2023-02-21T20:23:58.161Z,98155.57
2023-02-21T20:26:25.090Z,98156.88
2023-02-21T20:28:53.072Z,98156.79
2023-02-21T20:31:21.355Z,98162.30
2023-02-21T20:33:48.455Z,98165.34
2023-02-21T20:36:16.727Z,98168.02
2023-02-21T20:38:44.104Z,98169.42
2023-02-21T20:41:14.035Z,98171.89
2023-02-21T20:43:41.608Z,98175.11
2023-02-21T20:46:11.424Z,98178.41
2023-02-21T20:48:39.116Z,98180.01
2023-02-21T20:51:08.684Z,98185.33
2023-02-21T20:53:36.769Z,98191.35
2023-02-21T20:56:05.239Z,98187.41
2023-02-21T20:58:32.115Z,98188.29
2023-02-21T21:00:58.803Z,98190.55
2023-02-21T21:03:29.550Z,98187.20
2023-02-21T21:05:56.799Z,98190.14
2023-02-21T21:08:23.644Z,98186.81
2023-02-21T21:10:51.210Z,98189.84
2023-02-21T21:13:17.983Z,98191.27
2023-02-21T21:15:44.856Z,98200.18
2023-02-21T21:18:12.408Z,98200.35
2023-02-21T21:20:39.174Z,98202.15
2023-02-21T21:23:07.239Z,98202.89
2023-02-21T21:25:34.802Z,98204.86
2023-02-21T21:28:02.480Z,98204.76
2023-02-21T21:30:30.719Z,98206.70
2023-02-21T21:32:58.196Z,98205.19
2023-02-21T21:35:30.169Z,98203.52
2023-02-21T21:37:58.836Z,98206.98
2023-02-21T21:40:28.964Z,98204.73
2023-02-21T21:42:56.159Z,98207.45
2023-02-21T21:45:26.340Z,98205.20
2023-02-21T21:47:56.500Z,98204.86
2023-02-21T21:50:23.274Z,98206.87
2023-02-21T21:52:58.925Z,98213.77
2023-02-21T21:55:28.788Z,98215.41
2023-02-21T21:57:56.388Z,98216.66
2023-02-21T22:00:28.774Z,98216.91
2023-02-21T22:02:58.237Z,98216.70
2023-02-21T22:05:30.763Z,98218.88
2023-02-21T22:07:58.387Z,98223.40
2023-02-21T22:10:27.003Z,98225.71
2023-02-21T22:12:56.859Z,98223.02
2023-02-21T22:15:25.093Z,98223.36
2023-02-21T22:17:52.729Z,98221.55
2023-02-21T22:20:28.504Z,98217.38
2023-02-21T22:22:59.453Z,98218.15
2023-02-21T22:25:28.482Z,98219.24
2023-02-21T22:27:55.358Z,98225.28
2023-02-21T22:30:23.012Z,98226.40
2023-02-21T22:32:50.144Z,98224.91
2023-02-21T22:35:19.695Z,98227.39
2023-02-21T22:37:51.076Z,98226.42
2023-02-21T22:40:24.325Z,98228.57
2023-02-21T22:42:57.230Z,98231.59
2023-02-21T22:45:24.620Z,98233.27
2023-02-21T22:47:54.016Z,98230.18
2023-02-21T22:50:23.148Z,98231.18
2023-02-21T22:52:59.789Z,98230.31
2023-02-21T22:55:27.698Z,98237.02
2023-02-21T22:57:59.202Z,98241.80
2023-02-21T23:00:33.425Z,98246.58
2023-02-21T23:03:13.333Z,98249.60
2023-02-21T23:05:45.991Z,98250.35
2023-02-21T23:08:15.998Z,98250.89
2023-02-21T23:10:43.679Z,98256.52
2023-02-21T23:13:18.487Z,98260.28
2023-02-21T23:15:46.189Z,98261.39
2023-02-21T23:18:20.903Z,98261.90
2023-02-21T23:20:56.949Z,98266.92
2023-02-21T23:23:26.465Z,98265.71
2023-02-21T23:25:56.605Z,98264.27
2023-02-21T23:28:23.335Z,98269.80
2023-02-21T23:30:50.434Z,98265.52
2023-02-21T23:33:23.119Z,98265.27
2023-02-21T23:35:51.807Z,98271.42
2023-02-21T23:38:22.522Z,98271.52
2023-02-21T23:40:56.336Z,98270.05
2023-02-21T23:43:30.931Z,98269.92
2023-02-21T23:45:59.855Z,98273.89
2023-02-21T23:48:26.839Z,98271.86
2023-02-21T23:50:58.167Z,98272.71
2023-02-21T23:53:28.290Z,98270.52
2023-02-21T23:55:57.917Z,98271.13
2023-02-21T23:58:28.008Z,98270.70
